This is the latest recevied weather packets stored in our database for station/object EA2KR-10. If no packets are shown the sender has not sent any weather packets the latest 10 day(s).
| Time | Temp. | Humidity | Pressure | Rain* | Wind** | Luminosity | Snow |
|---|---|---|---|---|---|---|---|
| 1787538798 | 27.78° C | 41% | 1025.3 hPa | - | - | - | - |
| 1787536998 | 28.33° C | 39% | 1025.5 hPa | - | - | - | - |
| 1787535197 | 28.33° C | 40% | 1025.8 hPa | - | - | - | - |
| 1787533397 | 28.89° C | 39% | 1025.8 hPa | - | - | - | - |
| 1787531597 | 28.89° C | 38% | 1026 hPa | - | - | - | - |
| 1787529797 | 29.44° C | 37% | 1026.1 hPa | - | - | - | - |
| 1787527997 | 30° C | 37% | 1026.3 hPa | - | - | - | - |
| 1787526197 | 31.11° C | 35% | 1026.3 hPa | - | - | - | - |
| 1787524397 | 31.67° C | 34% | 1026.1 hPa | - | - | - | - |
| 1787522597 | 33.33° C | 31% | 1026.3 hPa | - | - | - | - |
| 1787520797 | 35° C | 30% | 1026.4 hPa | - | - | - | - |
| 1787518997 | 36.11° C | 27% | 1026.5 hPa | - | - | - | - |
| 1787517196 | 37.22° C | 25% | 1026.5 hPa | - | - | - | - |
| 1787515396 | 38.33° C | 24% | 1025.7 hPa | - | - | - | - |
| 1787513596 | 40° C | 23% | 1025.9 hPa | - | - | - | - |
| 1787511796 | 41.67° C | 22% | 1025.7 hPa | - | - | - | - |
| 1787509998 | 43.33° C | 22% | 1025.5 hPa | - | - | - | - |
| 1787508198 | 44.44° C | 21% | 1025.4 hPa | - | - | - | - |
| 1787506398 | 45.56° C | 21% | 1025.5 hPa | - | - | - | - |
| 1787504598 | 46.11° C | 20% | 1025.6 hPa | - | - | - | - |
| 1787502798 | 45.56° C | 21% | 1025.8 hPa | - | - | - | - |
| 1787500998 | 45.56° C | 22% | 1026.1 hPa | - | - | - | - |
| 1787499198 | 44.44° C | 23% | 1026.4 hPa | - | - | - | - |
| 1787497397 | 43.89° C | 24% | 1026.5 hPa | - | - | - | - |
| 1787495597 | 42.78° C | 26% | 1027 hPa | - | - | - | - |
* Rain since midnight (hover to see other rain measurements)
** Current wind speed in m/s (hover to see current wind gust speed)